Elk Creek, Virginia
Current Conditions -  °F | °C
As of 4:55 PM on Friday 28 Nov 2014 (Local Time) from KMKJ Reporting Station
Clear Clear  
Wind Chill: 20°   Ceiling: Unl
Heat Index: 29°   Visibility: 10mi
Dew Point: 20°   Wind: 10mph
Humidity: 68%   Direction: 260°W
Pressure: 30.24"   Gusts: NA
Location:  36.72°N, 81.18°W
Report Text: KMKJ 282155Z AUTO 26009KT 10SM CLR M01/M07 A3024 RMK AO2 T10141066
Loading
Personal Weather Stations






























Interactive Weather Map New forecast layout! Learn more

10-Day Weather Forecast

Advertisements
Track Severe Weather on mobile